Trident — ZJL9078 — position and weather

sailwx.info

Track history (hours):
 
Tides and Currents Weather Stations Pressure Air Temp Water Temp Dewpoint Dewpoint Depression Visibility Wind Speed Wind Dir Waves Ship Positions

Trident

Last reported at 2018-Jun-22 13:41 UTC. Time now 2018-Jun-22 19:09 UTC.
Position N 43°44' E 007°26'.

Length 46 m; draft 2.6 m.

Type: Ship. MMSI: 378379000.

Date/timePositionNaut miles runAvg speedWind from/ knotsBaromVisibWave heightAir tempDewpointWater temp
2018-Jun-22 13:41N 43°44' E 007°26'6313.0
2018-Jun-22 08:49N 44°07' E 008°48'612.9
2018-Jun-22 08:22N 44°10' E 008°54'513.1
2018-Jun-22 08:00N 44°13' E 008°60'612.8
2018-Jun-22 07:30N 44°16' E 009°08'4 0.2
2018-Jun-21 10:46N 44°18' E 009°13'0 1.1
2018-Jun-21 10:30N 44°18' E 009°13'1 0.7
2018-Jun-21 09:38N 44°19' E 009°13'0 0.0
2018-Jun-21 09:26N 44°19' E 009°13'0 0.0
2018-Jun-21 08:47N 44°19' E 009°13'0 0.0
2018-Jun-21 08:29N 44°19' E 009°13'0 0.0
2018-Jun-21 07:44N 44°19' E 009°13'0 0.0
2018-Jun-21 07:20N 44°19' E 009°13'0 0.0
2018-Jun-21 06:56N 44°19' E 009°13'0 0.0
2018-Jun-21 06:26N 44°19' E 009°13'0 0.0
2018-Jun-21 05:59N 44°19' E 009°13'0 0.0
2018-Jun-21 05:20N 44°19' E 009°13'0 0.0
2018-Jun-21 04:56N 44°19' E 009°13'0 0.0
2018-Jun-21 04:17N 44°19' E 009°13'0 0.0
2018-Jun-21 02:02N 44°19' E 009°13'0 0.0
2018-Jun-21 01:32N 44°19' E 009°13'0 0.0
2018-Jun-21 01:26N 44°19' E 009°13'0 0.0
2018-Jun-20 21:32N 44°19' E 009°13'0 0.0
2018-Jun-20 21:29N 44°19' E 009°13'0 0.0
2018-Jun-20 17:20N 44°19' E 009°13'0 0.0
2018-Jun-20 14:08N 44°19' E 009°13'0 0.1
2018-Jun-20 13:50N 44°19' E 009°13'0 0.0
2018-Jun-20 13:26N 44°19' E 009°13'0 0.0
2018-Jun-20 12:56N 44°19' E 009°13'0 0.0
2018-Jun-20 12:17N 44°19' E 009°13'0 0.0
2018-Jun-20 11:53N 44°19' E 009°13'0 0.0
2018-Jun-20 10:14N 44°19' E 009°13'0 0.1
2018-Jun-20 09:51N 44°19' E 009°13'610.3
2018-Jun-20 09:17N 44°15' E 009°20'413.5
2018-Jun-20 09:01N 44°13' E 009°23'713.4
2018-Jun-20 08:30N 44°09' E 009°31'713.2
2018-Jun-20 08:01N 44°05' E 009°39'713.0
2018-Jun-20 07:30N 44°02' E 009°47'3 6.9
2018-Jun-20 07:00N 44°03' E 009°51'0 0.7
2018-Jun-20 06:28N 44°03' E 009°51'0 0.0
2018-Jun-20 05:58N 44°03' E 009°51'0 0.0
2018-Jun-20 05:28N 44°03' E 009°51'0 0.0
2018-Jun-20 04:58N 44°03' E 009°51'0 0.0
2018-Jun-20 04:28N 44°03' E 009°51'0 0.0
2018-Jun-20 03:58N 44°03' E 009°51'0 0.0
2018-Jun-20 03:28N 44°03' E 009°51'0 0.0
2018-Jun-20 02:58N 44°03' E 009°51'0 0.0
2018-Jun-20 02:28N 44°03' E 009°51'0 0.0
2018-Jun-20 01:58N 44°03' E 009°51'0 0.0
2018-Jun-20 01:28N 44°03' E 009°51'0 0.0
2018-Jun-20 00:58N 44°03' E 009°51'0 0.0
2018-Jun-20 00:28N 44°03' E 009°51'0 0.0
2018-Jun-19 23:58N 44°03' E 009°51'0 0.0
2018-Jun-19 23:28N 44°03' E 009°51'0 0.0
2018-Jun-19 22:58N 44°03' E 009°51'0 0.0
2018-Jun-19 22:28N 44°03' E 009°51'0 0.0
2018-Jun-19 21:58N 44°03' E 009°51'0 0.0
2018-Jun-19 21:28N 44°03' E 009°51'0 0.0
2018-Jun-19 20:58N 44°03' E 009°51'0 0.0
2018-Jun-19 20:28N 44°03' E 009°51'0 0.0
2018-Jun-19 19:58N 44°03' E 009°51'0 0.0
2018-Jun-19 19:28N 44°03' E 009°51'0 0.0
2018-Jun-19 18:58N 44°03' E 009°51'0 0.0
2018-Jun-19 18:28N 44°03' E 009°51'0 0.0
2018-Jun-19 17:58N 44°03' E 009°51'0 0.0
2018-Jun-19 17:28N 44°03' E 009°51'0 0.0
2018-Jun-19 16:58N 44°03' E 009°51'0 0.0
2018-Jun-19 16:28N 44°03' E 009°51'0 0.0
2018-Jun-19 15:58N 44°03' E 009°51'0 0.0
2018-Jun-19 15:28N 44°03' E 009°51'0 0.0
2018-Jun-19 14:58N 44°03' E 009°51'0 0.0
2018-Jun-19 14:28N 44°03' E 009°51'0 0.0
2018-Jun-19 13:58N 44°03' E 009°51'0 0.1
2018-Jun-19 13:28N 44°03' E 009°51'0 0.0
2018-Jun-19 12:58N 44°03' E 009°51'0 0.0
2018-Jun-19 12:28N 44°03' E 009°51'0 0.0
2018-Jun-19 11:58N 44°03' E 009°51'0 0.0
2018-Jun-19 11:28N 44°03' E 009°51'0 0.1
2018-Jun-19 10:58N 44°03' E 009°51'0 0.1
2018-Jun-19 10:28N 44°03' E 009°51'0 0.0
2018-Jun-19 09:58N 44°03' E 009°51'0 0.0
2018-Jun-19 09:28N 44°03' E 009°51'0 0.0
2018-Jun-19 08:58N 44°03' E 009°51'2 5.0
2018-Jun-19 08:31N 44°05' E 009°52'0 0.1
2018-Jun-19 07:59N 44°05' E 009°52'0 0.0
2018-Jun-19 07:30N 44°05' E 009°52'3 5.8
2018-Jun-19 07:00N 44°03' E 009°53'611.7
2018-Jun-19 06:30N 43°59' E 009°59'611.4
2018-Jun-19 06:00N 43°56' E 010°06'611.3
2018-Jun-19 05:30N 43°53' E 010°12'2 3.7
2018-Jun-19 05:00N 43°52' E 010°14'0 0.0
2018-Jun-19 04:29N 43°52' E 010°14'0 0.0
2018-Jun-19 03:59N 43°52' E 010°14'0 0.0
2018-Jun-19 03:29N 43°52' E 010°14'0 0.0
2018-Jun-19 02:59N 43°52' E 010°14'0 0.0
2018-Jun-19 02:29N 43°52' E 010°14'0 0.0
2018-Jun-19 01:59N 43°52' E 010°14'0 0.0
2018-Jun-19 01:29N 43°52' E 010°14'0 0.0
2018-Jun-19 00:59N 43°52' E 010°14'0 0.0
2018-Jun-19 00:29N 43°52' E 010°14'0 0.0
2018-Jun-18 23:59N 43°52' E 010°14'0 0.0
2018-Jun-18 23:29N 43°52' E 010°14'0 0.0
2018-Jun-18 22:59N 43°52' E 010°14'0 0.0
2018-Jun-18 22:29N 43°52' E 010°14'0 0.0
2018-Jun-18 21:59N 43°52' E 010°14'0 0.0
2018-Jun-18 21:29N 43°52' E 010°14'0 0.0
2018-Jun-18 20:59N 43°52' E 010°14'0 0.0
2018-Jun-18 20:29N 43°52' E 010°14'0 0.0
2018-Jun-18 19:59N 43°52' E 010°14'0 0.0
2018-Jun-18 19:29N 43°52' E 010°14'0 0.0
2018-Jun-18 18:59N 43°52' E 010°14'0 0.0
2018-Jun-18 18:29N 43°52' E 010°14'0 0.0
2018-Jun-18 17:59N 43°52' E 010°14'0 0.0
2018-Jun-18 17:29N 43°52' E 010°14'0 0.0
2018-Jun-18 16:59N 43°52' E 010°14'0 0.0
2018-Jun-18 16:29N 43°52' E 010°14'0 0.0
2018-Jun-18 15:59N 43°52' E 010°14'0 0.0
2018-Jun-18 15:29N 43°52' E 010°14'0 0.0
2018-Jun-18 14:59N 43°52' E 010°14'0 0.0
2018-Jun-18 14:29N 43°52' E 010°14'0 0.0
2018-Jun-18 13:59N 43°52' E 010°14'0 0.0
2018-Jun-18 13:29N 43°52' E 010°14'0 0.0
2018-Jun-18 12:53N 43°52' E 010°14'0 0.0
2018-Jun-18 12:29N 43°52' E 010°14'0 0.0
2018-Jun-18 11:59N 43°52' E 010°14'0 0.0
2018-Jun-18 11:23N 43°52' E 010°14'0 0.0
2018-Jun-18 10:59N 43°52' E 010°14'0 0.0
2018-Jun-18 10:29N 43°52' E 010°14'0 0.0
2018-Jun-18 09:59N 43°52' E 010°14'0 0.0
2018-Jun-18 09:26N 43°52' E 010°14'0 0.0
2018-Jun-18 08:50N 43°52' E 010°14'0 0.2
2018-Jun-18 08:30N 43°52' E 010°14'3 6.5
2018-Jun-18 08:01N 43°50' E 010°10'713.0
2018-Jun-18 07:31N 43°44' E 010°08'612.4
2018-Jun-18 07:01N 43°38' E 010°05'612.8
2018-Jun-18 06:30N 43°32' E 010°06'612.9
2018-Jun-18 06:01N 43°25' E 010°07'713.0
2018-Jun-18 05:30N 43°19' E 010°08'612.9
2018-Jun-18 05:00N 43°12' E 010°09'712.8
2018-Jun-18 04:27N 43°05' E 010°10'1113.0
2018-Jun-18 03:37N 42°55' E 010°11'612.9
2018-Jun-18 03:09N 42°49' E 010°12'0 0.1
2018-Jun-18 02:46N 42°49' E 010°12'0 0.0
2018-Jun-18 02:28N 42°49' E 010°12'0 0.0
2018-Jun-18 00:55N 42°49' E 010°12'0 0.0
2018-Jun-18 00:04N 42°49' E 010°12'0 0.0
2018-Jun-17 21:01N 42°49' E 010°12'0 0.0
2018-Jun-17 20:37N 42°49' E 010°12'0 0.0
2018-Jun-17 19:16N 42°49' E 010°12'0 0.0
2018-Jun-17 15:32N 42°49' E 010°12'0 0.9
2018-Jun-17 15:29N 42°49' E 010°12'2 4.7
2018-Jun-17 14:59N 42°49' E 010°15'0 0.1
2018-Jun-17 11:47N 42°49' E 010°15'3 0.2
2018-Jun-16 15:46N 42°49' E 010°20'0 1.3
2018-Jun-16 15:31N 42°49' E 010°20'611.1
2018-Jun-16 15:00N 42°53' E 010°25'39 0.8
2018-Jun-14 11:54N 42°27' E 011°06'1 2.4
2018-Jun-14 11:30N 42°26' E 011°07'0 0.2
2018-Jun-14 10:57N 42°26' E 011°07'0 0.0
2018-Jun-14 10:29N 42°26' E 011°07'0 0.0
2018-Jun-14 09:57N 42°26' E 011°07'0 0.0
2018-Jun-14 09:29N 42°26' E 011°07'0 0.0
2018-Jun-14 09:00N 42°26' E 011°07'0 0.0
2018-Jun-14 08:26N 42°26' E 011°07'0 0.0
2018-Jun-14 07:56N 42°26' E 011°07'0 0.0
2018-Jun-14 07:27N 42°26' E 011°07'0 0.0
2018-Jun-14 06:57N 42°26' E 011°07'0 0.0
2018-Jun-14 06:29N 42°26' E 011°07'0 0.0
2018-Jun-14 05:59N 42°26' E 011°07'0 0.1
2018-Jun-14 05:30N 42°26' E 011°07'0 0.0
2018-Jun-14 04:56N 42°26' E 011°07'0 0.0
2018-Jun-14 04:30N 42°26' E 011°07'0 0.0
2018-Jun-14 03:59N 42°26' E 011°07'0 0.0
2018-Jun-14 03:27N 42°26' E 011°07'0 0.0
2018-Jun-14 02:56N 42°26' E 011°07'0 0.1
2018-Jun-14 02:30N 42°26' E 011°07'  
Track history (hours):
 
Tides and Currents Weather Stations Pressure Air Temp Water Temp Dewpoint Dewpoint Depression Visibility Wind Speed Wind Dir Waves Ship Positions

Trident

Last reported at 2018-Jun-22 13:41 UTC. Time now 2018-Jun-22 19:09 UTC.
Position N 43°44' E 007°26'.

Length 46 m; draft 2.6 m.

Type: Ship. MMSI: 378379000.

Date/timePositionNaut miles runAvg speedWind from/ knotsBaromVisibWave heightAir tempDewpointWater temp
2018-Jun-22 13:41N 43°44' E 007°26'6313.0
2018-Jun-22 08:49N 44°07' E 008°48'612.9
2018-Jun-22 08:22N 44°10' E 008°54'513.1
2018-Jun-22 08:00N 44°13' E 008°60'612.8
2018-Jun-22 07:30N 44°16' E 009°08'4 0.2
2018-Jun-21 10:46N 44°18' E 009°13'0 1.1
2018-Jun-21 10:30N 44°18' E 009°13'1 0.7
2018-Jun-21 09:38N 44°19' E 009°13'0 0.0
2018-Jun-21 09:26N 44°19' E 009°13'0 0.0
2018-Jun-21 08:47N 44°19' E 009°13'0 0.0
2018-Jun-21 08:29N 44°19' E 009°13'0 0.0
2018-Jun-21 07:44N 44°19' E 009°13'0 0.0
2018-Jun-21 07:20N 44°19' E 009°13'0 0.0
2018-Jun-21 06:56N 44°19' E 009°13'0 0.0
2018-Jun-21 06:26N 44°19' E 009°13'0 0.0
2018-Jun-21 05:59N 44°19' E 009°13'0 0.0
2018-Jun-21 05:20N 44°19' E 009°13'0 0.0
2018-Jun-21 04:56N 44°19' E 009°13'0 0.0
2018-Jun-21 04:17N 44°19' E 009°13'0 0.0
2018-Jun-21 02:02N 44°19' E 009°13'0 0.0
2018-Jun-21 01:32N 44°19' E 009°13'0 0.0
2018-Jun-21 01:26N 44°19' E 009°13'0 0.0
2018-Jun-20 21:32N 44°19' E 009°13'0 0.0
2018-Jun-20 21:29N 44°19' E 009°13'0 0.0
2018-Jun-20 17:20N 44°19' E 009°13'0 0.0
2018-Jun-20 14:08N 44°19' E 009°13'0 0.1
2018-Jun-20 13:50N 44°19' E 009°13'0 0.0
2018-Jun-20 13:26N 44°19' E 009°13'0 0.0
2018-Jun-20 12:56N 44°19' E 009°13'0 0.0
2018-Jun-20 12:17N 44°19' E 009°13'0 0.0
2018-Jun-20 11:53N 44°19' E 009°13'0 0.0
2018-Jun-20 10:14N 44°19' E 009°13'0 0.1
2018-Jun-20 09:51N 44°19' E 009°13'610.3
2018-Jun-20 09:17N 44°15' E 009°20'413.5
2018-Jun-20 09:01N 44°13' E 009°23'713.4
2018-Jun-20 08:30N 44°09' E 009°31'713.2
2018-Jun-20 08:01N 44°05' E 009°39'713.0
2018-Jun-20 07:30N 44°02' E 009°47'3 6.9
2018-Jun-20 07:00N 44°03' E 009°51'0 0.7
2018-Jun-20 06:28N 44°03' E 009°51'0 0.0
2018-Jun-20 05:58N 44°03' E 009°51'0 0.0
2018-Jun-20 05:28N 44°03' E 009°51'0 0.0
2018-Jun-20 04:58N 44°03' E 009°51'0 0.0
2018-Jun-20 04:28N 44°03' E 009°51'0 0.0
2018-Jun-20 03:58N 44°03' E 009°51'0 0.0
2018-Jun-20 03:28N 44°03' E 009°51'0 0.0
2018-Jun-20 02:58N 44°03' E 009°51'0 0.0
2018-Jun-20 02:28N 44°03' E 009°51'0 0.0
2018-Jun-20 01:58N 44°03' E 009°51'0 0.0
2018-Jun-20 01:28N 44°03' E 009°51'0 0.0
2018-Jun-20 00:58N 44°03' E 009°51'0 0.0
2018-Jun-20 00:28N 44°03' E 009°51'0 0.0
2018-Jun-19 23:58N 44°03' E 009°51'0 0.0
2018-Jun-19 23:28N 44°03' E 009°51'0 0.0
2018-Jun-19 22:58N 44°03' E 009°51'0 0.0
2018-Jun-19 22:28N 44°03' E 009°51'0 0.0
2018-Jun-19 21:58N 44°03' E 009°51'0 0.0
2018-Jun-19 21:28N 44°03' E 009°51'0 0.0
2018-Jun-19 20:58N 44°03' E 009°51'0 0.0
2018-Jun-19 20:28N 44°03' E 009°51'0 0.0
2018-Jun-19 19:58N 44°03' E 009°51'0 0.0
2018-Jun-19 19:28N 44°03' E 009°51'0 0.0
2018-Jun-19 18:58N 44°03' E 009°51'0 0.0
2018-Jun-19 18:28N 44°03' E 009°51'0 0.0
2018-Jun-19 17:58N 44°03' E 009°51'0 0.0
2018-Jun-19 17:28N 44°03' E 009°51'0 0.0
2018-Jun-19 16:58N 44°03' E 009°51'0 0.0
2018-Jun-19 16:28N 44°03' E 009°51'0 0.0
2018-Jun-19 15:58N 44°03' E 009°51'0 0.0
2018-Jun-19 15:28N 44°03' E 009°51'0 0.0
2018-Jun-19 14:58N 44°03' E 009°51'0 0.0
2018-Jun-19 14:28N 44°03' E 009°51'0 0.0
2018-Jun-19 13:58N 44°03' E 009°51'0 0.1
2018-Jun-19 13:28N 44°03' E 009°51'0 0.0
2018-Jun-19 12:58N 44°03' E 009°51'0 0.0
2018-Jun-19 12:28N 44°03' E 009°51'0 0.0
2018-Jun-19 11:58N 44°03' E 009°51'0 0.0
2018-Jun-19 11:28N 44°03' E 009°51'0 0.1
2018-Jun-19 10:58N 44°03' E 009°51'0 0.1
2018-Jun-19 10:28N 44°03' E 009°51'0 0.0
2018-Jun-19 09:58N 44°03' E 009°51'0 0.0
2018-Jun-19 09:28N 44°03' E 009°51'0 0.0
2018-Jun-19 08:58N 44°03' E 009°51'2 5.0
2018-Jun-19 08:31N 44°05' E 009°52'0 0.1
2018-Jun-19 07:59N 44°05' E 009°52'0 0.0
2018-Jun-19 07:30N 44°05' E 009°52'3 5.8
2018-Jun-19 07:00N 44°03' E 009°53'611.7
2018-Jun-19 06:30N 43°59' E 009°59'611.4
2018-Jun-19 06:00N 43°56' E 010°06'611.3
2018-Jun-19 05:30N 43°53' E 010°12'2 3.7
2018-Jun-19 05:00N 43°52' E 010°14'0 0.0
2018-Jun-19 04:29N 43°52' E 010°14'0 0.0
2018-Jun-19 03:59N 43°52' E 010°14'0 0.0
2018-Jun-19 03:29N 43°52' E 010°14'0 0.0
2018-Jun-19 02:59N 43°52' E 010°14'0 0.0
2018-Jun-19 02:29N 43°52' E 010°14'0 0.0
2018-Jun-19 01:59N 43°52' E 010°14'0 0.0
2018-Jun-19 01:29N 43°52' E 010°14'0 0.0
2018-Jun-19 00:59N 43°52' E 010°14'0 0.0
2018-Jun-19 00:29N 43°52' E 010°14'0 0.0
2018-Jun-18 23:59N 43°52' E 010°14'0 0.0
2018-Jun-18 23:29N 43°52' E 010°14'0 0.0
2018-Jun-18 22:59N 43°52' E 010°14'0 0.0
2018-Jun-18 22:29N 43°52' E 010°14'0 0.0
2018-Jun-18 21:59N 43°52' E 010°14'0 0.0
2018-Jun-18 21:29N 43°52' E 010°14'0 0.0
2018-Jun-18 20:59N 43°52' E 010°14'0 0.0
2018-Jun-18 20:29N 43°52' E 010°14'0 0.0
2018-Jun-18 19:59N 43°52' E 010°14'0 0.0
2018-Jun-18 19:29N 43°52' E 010°14'0 0.0
2018-Jun-18 18:59N 43°52' E 010°14'0 0.0
2018-Jun-18 18:29N 43°52' E 010°14'0 0.0
2018-Jun-18 17:59N 43°52' E 010°14'0 0.0
2018-Jun-18 17:29N 43°52' E 010°14'0 0.0
2018-Jun-18 16:59N 43°52' E 010°14'0 0.0
2018-Jun-18 16:29N 43°52' E 010°14'0 0.0
2018-Jun-18 15:59N 43°52' E 010°14'0 0.0
2018-Jun-18 15:29N 43°52' E 010°14'0 0.0
2018-Jun-18 14:59N 43°52' E 010°14'0 0.0
2018-Jun-18 14:29N 43°52' E 010°14'0 0.0
2018-Jun-18 13:59N 43°52' E 010°14'0 0.0
2018-Jun-18 13:29N 43°52' E 010°14'0 0.0
2018-Jun-18 12:53N 43°52' E 010°14'0 0.0
2018-Jun-18 12:29N 43°52' E 010°14'0 0.0
2018-Jun-18 11:59N 43°52' E 010°14'0 0.0
2018-Jun-18 11:23N 43°52' E 010°14'0 0.0
2018-Jun-18 10:59N 43°52' E 010°14'0 0.0
2018-Jun-18 10:29N 43°52' E 010°14'0 0.0
2018-Jun-18 09:59N 43°52' E 010°14'0 0.0
2018-Jun-18 09:26N 43°52' E 010°14'0 0.0
2018-Jun-18 08:50N 43°52' E 010°14'0 0.2
2018-Jun-18 08:30N 43°52' E 010°14'3 6.5
2018-Jun-18 08:01N 43°50' E 010°10'713.0
2018-Jun-18 07:31N 43°44' E 010°08'612.4
2018-Jun-18 07:01N 43°38' E 010°05'612.8
2018-Jun-18 06:30N 43°32' E 010°06'612.9
2018-Jun-18 06:01N 43°25' E 010°07'713.0
2018-Jun-18 05:30N 43°19' E 010°08'612.9
2018-Jun-18 05:00N 43°12' E 010°09'712.8
2018-Jun-18 04:27N 43°05' E 010°10'1113.0
2018-Jun-18 03:37N 42°55' E 010°11'612.9
2018-Jun-18 03:09N 42°49' E 010°12'0 0.1
2018-Jun-18 02:46N 42°49' E 010°12'0 0.0
2018-Jun-18 02:28N 42°49' E 010°12'0 0.0
2018-Jun-18 00:55N 42°49' E 010°12'0 0.0
2018-Jun-18 00:04N 42°49' E 010°12'0 0.0
2018-Jun-17 21:01N 42°49' E 010°12'0 0.0
2018-Jun-17 20:37N 42°49' E 010°12'0 0.0
2018-Jun-17 19:16N 42°49' E 010°12'0 0.0
2018-Jun-17 15:32N 42°49' E 010°12'0 0.9
2018-Jun-17 15:29N 42°49' E 010°12'2 4.7
2018-Jun-17 14:59N 42°49' E 010°15'0 0.1
2018-Jun-17 11:47N 42°49' E 010°15'3 0.2
2018-Jun-16 15:46N 42°49' E 010°20'0 1.3
2018-Jun-16 15:31N 42°49' E 010°20'611.1
2018-Jun-16 15:00N 42°53' E 010°25'39 0.8
2018-Jun-14 11:54N 42°27' E 011°06'1 2.4
2018-Jun-14 11:30N 42°26' E 011°07'0 0.2
2018-Jun-14 10:57N 42°26' E 011°07'0 0.0
2018-Jun-14 10:29N 42°26' E 011°07'0 0.0
2018-Jun-14 09:57N 42°26' E 011°07'0 0.0
2018-Jun-14 09:29N 42°26' E 011°07'0 0.0
2018-Jun-14 09:00N 42°26' E 011°07'0 0.0
2018-Jun-14 08:26N 42°26' E 011°07'0 0.0
2018-Jun-14 07:56N 42°26' E 011°07'0 0.0
2018-Jun-14 07:27N 42°26' E 011°07'0 0.0
2018-Jun-14 06:57N 42°26' E 011°07'0 0.0
2018-Jun-14 06:29N 42°26' E 011°07'0 0.0
2018-Jun-14 05:59N 42°26' E 011°07'0 0.1
2018-Jun-14 05:30N 42°26' E 011°07'0 0.0
2018-Jun-14 04:56N 42°26' E 011°07'0 0.0
2018-Jun-14 04:30N 42°26' E 011°07'0 0.0
2018-Jun-14 03:59N 42°26' E 011°07'0 0.0
2018-Jun-14 03:27N 42°26' E 011°07'0 0.0
2018-Jun-14 02:56N 42°26' E 011°07'0 0.1
2018-Jun-14 02:30N 42°26' E 011°07'  

Dump ship's entire track history